sensor_id;sensor_type;location;lat;lon;timestamp;P1;durP1;ratioP1;P2;durP2;ratioP2
29044;SDS011;16133;49.486;12.176;2023-07-08T00:00:42;6.55;;;4.18;;
29044;SDS011;16133;49.486;12.176;2023-07-08T00:03:08;8.13;;;4.75;;
29044;SDS011;16133;49.486;12.176;2023-07-08T00:05:33;7.63;;;4.13;;
29044;SDS011;16133;49.486;12.176;2023-07-08T00:07:59;8.98;;;4.07;;
29044;SDS011;16133;49.486;12.176;2023-07-08T00:10:26;6.95;;;4.25;;
29044;SDS011;16133;49.486;12.176;2023-07-08T00:12:53;8.38;;;4.45;;
29044;SDS011;16133;49.486;12.176;2023-07-08T00:15:24;10.20;;;4.28;;
29044;SDS011;16133;49.486;12.176;2023-07-08T00:17:51;6.38;;;3.60;;
29044;SDS011;16133;49.486;12.176;2023-07-08T00:20:26;6.95;;;4.00;;
29044;SDS011;16133;49.486;12.176;2023-07-08T00:23:03;7.47;;;4.35;;
29044;SDS011;16133;49.486;12.176;2023-07-08T00:25:29;6.82;;;4.38;;
29044;SDS011;16133;49.486;12.176;2023-07-08T00:27:56;6.53;;;3.83;;
29044;SDS011;16133;49.486;12.176;2023-07-08T00:30:29;6.97;;;4.60;;
29044;SDS011;16133;49.486;12.176;2023-07-08T00:32:55;7.28;;;4.53;;
29044;SDS011;16133;49.486;12.176;2023-07-08T00:35:24;7.55;;;4.38;;
29044;SDS011;16133;49.486;12.176;2023-07-08T00:37:54;7.88;;;4.47;;
29044;SDS011;16133;49.486;12.176;2023-07-08T00:40:26;7.30;;;4.07;;
29044;SDS011;16133;49.486;12.176;2023-07-08T00:42:53;7.65;;;3.92;;
29044;SDS011;16133;49.486;12.176;2023-07-08T00:45:53;8.00;;;4.20;;
29044;SDS011;16133;49.486;12.176;2023-07-08T00:48:18;7.18;;;4.32;;
29044;SDS011;16133;49.486;12.176;2023-07-08T00:50:47;6.65;;;4.30;;
29044;SDS011;16133;49.486;12.176;2023-07-08T00:53:32;8.82;;;5.18;;
29044;SDS011;16133;49.486;12.176;2023-07-08T00:58:44;7.97;;;4.45;;
29044;SDS011;16133;49.486;12.176;2023-07-08T01:01:18;7.53;;;4.47;;
29044;SDS011;16133;49.486;12.176;2023-07-08T01:03:46;7.20;;;4.82;;
29044;SDS011;16133;49.486;12.176;2023-07-08T01:06:14;7.53;;;4.70;;
29044;SDS011;16133;49.486;12.176;2023-07-08T01:08:41;8.27;;;4.65;;
29044;SDS011;16133;49.486;12.176;2023-07-08T01:11:07;6.05;;;3.97;;
29044;SDS011;16133;49.486;12.176;2023-07-08T01:13:37;10.90;;;5.03;;
29044;SDS011;16133;49.486;12.176;2023-07-08T01:16:07;8.88;;;4.68;;
29044;SDS011;16133;49.486;12.176;2023-07-08T01:18:33;6.72;;;4.57;;
29044;SDS011;16133;49.486;12.176;2023-07-08T01:21:01;8.93;;;4.57;;
29044;SDS011;16133;49.486;12.176;2023-07-08T01:23:31;8.00;;;4.88;;
29044;SDS011;16133;49.486;12.176;2023-07-08T01:25:57;6.75;;;4.07;;
29044;SDS011;16133;49.486;12.176;2023-07-08T01:28:25;7.47;;;4.20;;
29044;SDS011;16133;49.486;12.176;2023-07-08T01:30:52;7.07;;;4.43;;
29044;SDS011;16133;49.486;12.176;2023-07-08T01:33:19;9.63;;;5.38;;
29044;SDS011;16133;49.486;12.176;2023-07-08T01:35:46;7.20;;;4.55;;
29044;SDS011;16133;49.486;12.176;2023-07-08T01:38:14;8.15;;;4.72;;
29044;SDS011;16133;49.486;12.176;2023-07-08T01:40:47;10.38;;;5.18;;
29044;SDS011;16133;49.486;12.176;2023-07-08T01:43:14;7.30;;;4.80;;
29044;SDS011;16133;49.486;12.176;2023-07-08T01:45:40;8.95;;;5.10;;
29044;SDS011;16133;49.486;12.176;2023-07-08T01:48:07;7.88;;;4.88;;
29044;SDS011;16133;49.486;12.176;2023-07-08T01:50:37;8.57;;;4.68;;
29044;SDS011;16133;49.486;12.176;2023-07-08T01:53:08;9.45;;;6.03;;
29044;SDS011;16133;49.486;12.176;2023-07-08T01:55:38;9.63;;;5.70;;
29044;SDS011;16133;49.486;12.176;2023-07-08T01:58:03;7.53;;;4.60;;
29044;SDS011;16133;49.486;12.176;2023-07-08T02:00:29;7.80;;;4.55;;
29044;SDS011;16133;49.486;12.176;2023-07-08T02:02:54;9.55;;;5.38;;
29044;SDS011;16133;49.486;12.176;2023-07-08T02:05:20;8.23;;;4.82;;
29044;SDS011;16133;49.486;12.176;2023-07-08T02:07:45;7.72;;;5.15;;
29044;SDS011;16133;49.486;12.176;2023-07-08T02:10:11;11.20;;;6.05;;
29044;SDS011;16133;49.486;12.176;2023-07-08T02:12:36;8.52;;;5.38;;
29044;SDS011;16133;49.486;12.176;2023-07-08T02:15:02;9.25;;;5.35;;
29044;SDS011;16133;49.486;12.176;2023-07-08T02:17:28;7.70;;;5.85;;
29044;SDS011;16133;49.486;12.176;2023-07-08T02:19:54;9.38;;;5.85;;
29044;SDS011;16133;49.486;12.176;2023-07-08T02:22:20;9.13;;;5.50;;
29044;SDS011;16133;49.486;12.176;2023-07-08T02:24:45;7.90;;;5.40;;
29044;SDS011;16133;49.486;12.176;2023-07-08T02:27:11;9.98;;;5.22;;
29044;SDS011;16133;49.486;12.176;2023-07-08T02:29:36;7.35;;;4.75;;
29044;SDS011;16133;49.486;12.176;2023-07-08T02:32:03;11.40;;;5.80;;
29044;SDS011;16133;49.486;12.176;2023-07-08T02:34:29;9.68;;;5.97;;
29044;SDS011;16133;49.486;12.176;2023-07-08T02:36:54;9.38;;;5.18;;
29044;SDS011;16133;49.486;12.176;2023-07-08T02:42:43;10.45;;;6.13;;
29044;SDS011;16133;49.486;12.176;2023-07-08T02:45:08;10.05;;;6.40;;
29044;SDS011;16133;49.486;12.176;2023-07-08T02:47:34;9.82;;;6.47;;
29044;SDS011;16133;49.486;12.176;2023-07-08T02:49:59;10.35;;;5.95;;
29044;SDS011;16133;49.486;12.176;2023-07-08T02:52:24;10.27;;;6.63;;
29044;SDS011;16133;49.486;12.176;2023-07-08T02:54:50;12.15;;;6.53;;
29044;SDS011;16133;49.486;12.176;2023-07-08T02:57:15;9.27;;;5.90;;
29044;SDS011;16133;49.486;12.176;2023-07-08T02:59:40;9.63;;;6.47;;
29044;SDS011;16133;49.486;12.176;2023-07-08T03:02:06;11.07;;;6.07;;
29044;SDS011;16133;49.486;12.176;2023-07-08T03:04:31;9.95;;;6.07;;
29044;SDS011;16133;49.486;12.176;2023-07-08T03:06:56;9.57;;;5.40;;
29044;SDS011;16133;49.486;12.176;2023-07-08T03:09:22;11.43;;;6.35;;
29044;SDS011;16133;49.486;12.176;2023-07-08T03:11:47;9.63;;;5.78;;
29044;SDS011;16133;49.486;12.176;2023-07-08T03:14:12;10.30;;;6.50;;
29044;SDS011;16133;49.486;12.176;2023-07-08T03:16:38;8.85;;;5.60;;
29044;SDS011;16133;49.486;12.176;2023-07-08T03:19:03;9.90;;;6.13;;
29044;SDS011;16133;49.486;12.176;2023-07-08T03:21:30;13.00;;;6.53;;
29044;SDS011;16133;49.486;12.176;2023-07-08T03:23:56;10.27;;;6.18;;
29044;SDS011;16133;49.486;12.176;2023-07-08T03:26:22;11.27;;;6.40;;
29044;SDS011;16133;49.486;12.176;2023-07-08T03:28:49;11.80;;;7.30;;
29044;SDS011;16133;49.486;12.176;2023-07-08T03:31:15;11.25;;;6.60;;
29044;SDS011;16133;49.486;12.176;2023-07-08T03:33:41;10.95;;;6.07;;
29044;SDS011;16133;49.486;12.176;2023-07-08T03:36:14;15.73;;;6.68;;
29044;SDS011;16133;49.486;12.176;2023-07-08T03:38:53;10.25;;;5.90;;
29044;SDS011;16133;49.486;12.176;2023-07-08T03:41:23;10.93;;;6.57;;
29044;SDS011;16133;49.486;12.176;2023-07-08T03:43:49;10.18;;;5.95;;
29044;SDS011;16133;49.486;12.176;2023-07-08T03:46:15;11.07;;;6.53;;
29044;SDS011;16133;49.486;12.176;2023-07-08T03:48:41;10.18;;;6.07;;
29044;SDS011;16133;49.486;12.176;2023-07-08T03:51:12;13.07;;;7.18;;
29044;SDS011;16133;49.486;12.176;2023-07-08T03:53:46;10.30;;;6.82;;
29044;SDS011;16133;49.486;12.176;2023-07-08T03:56:12;9.40;;;5.90;;
29044;SDS011;16133;49.486;12.176;2023-07-08T03:58:38;9.73;;;6.30;;
29044;SDS011;16133;49.486;12.176;2023-07-08T04:01:03;10.35;;;6.40;;
29044;SDS011;16133;49.486;12.176;2023-07-08T04:03:29;9.13;;;6.60;;
29044;SDS011;16133;49.486;12.176;2023-07-08T04:05:55;10.45;;;6.50;;
29044;SDS011;16133;49.486;12.176;2023-07-08T04:08:20;9.00;;;6.43;;
29044;SDS011;16133;49.486;12.176;2023-07-08T04:10:46;9.43;;;6.55;;
29044;SDS011;16133;49.486;12.176;2023-07-08T04:13:11;9.60;;;6.70;;
29044;SDS011;16133;49.486;12.176;2023-07-08T04:15:37;9.82;;;6.80;;
29044;SDS011;16133;49.486;12.176;2023-07-08T04:18:02;10.48;;;6.32;;
29044;SDS011;16133;49.486;12.176;2023-07-08T04:20:28;11.35;;;6.88;;
29044;SDS011;16133;49.486;12.176;2023-07-08T04:22:53;9.80;;;6.15;;
29044;SDS011;16133;49.486;12.176;2023-07-08T04:25:19;7.47;;;5.82;;
29044;SDS011;16133;49.486;12.176;2023-07-08T04:27:44;8.73;;;5.18;;
29044;SDS011;16133;49.486;12.176;2023-07-08T04:30:31;9.80;;;6.45;;
29044;SDS011;16133;49.486;12.176;2023-07-08T04:32:55;8.63;;;6.07;;
29044;SDS011;16133;49.486;12.176;2023-07-08T04:35:21;8.02;;;6.40;;
29044;SDS011;16133;49.486;12.176;2023-07-08T04:37:46;7.97;;;5.30;;
29044;SDS011;16133;49.486;12.176;2023-07-08T04:40:14;10.98;;;5.70;;
29044;SDS011;16133;49.486;12.176;2023-07-08T04:42:43;10.02;;;6.10;;
29044;SDS011;16133;49.486;12.176;2023-07-08T04:45:09;9.05;;;5.90;;
29044;SDS011;16133;49.486;12.176;2023-07-08T04:47:35;11.50;;;6.50;;
29044;SDS011;16133;49.486;12.176;2023-07-08T04:50:01;9.38;;;5.70;;
29044;SDS011;16133;49.486;12.176;2023-07-08T04:52:26;10.65;;;6.70;;
29044;SDS011;16133;49.486;12.176;2023-07-08T04:54:51;10.50;;;6.00;;
29044;SDS011;16133;49.486;12.176;2023-07-08T04:57:17;9.90;;;7.00;;
29044;SDS011;16133;49.486;12.176;2023-07-08T04:59:42;8.27;;;5.53;;
29044;SDS011;16133;49.486;12.176;2023-07-08T05:02:07;9.23;;;6.00;;
29044;SDS011;16133;49.486;12.176;2023-07-08T05:04:33;10.98;;;6.38;;
29044;SDS011;16133;49.486;12.176;2023-07-08T05:06:58;9.18;;;5.82;;
29044;SDS011;16133;49.486;12.176;2023-07-08T05:09:24;7.82;;;5.75;;
29044;SDS011;16133;49.486;12.176;2023-07-08T05:11:51;7.68;;;4.97;;
29044;SDS011;16133;49.486;12.176;2023-07-08T05:14:16;8.82;;;5.13;;
29044;SDS011;16133;49.486;12.176;2023-07-08T05:16:42;8.05;;;4.90;;
29044;SDS011;16133;49.486;12.176;2023-07-08T05:19:07;6.30;;;4.90;;
29044;SDS011;16133;49.486;12.176;2023-07-08T05:21:34;7.70;;;4.45;;
29044;SDS011;16133;49.486;12.176;2023-07-08T05:24:03;6.47;;;4.72;;
29044;SDS011;16133;49.486;12.176;2023-07-08T05:26:29;5.68;;;4.47;;
29044;SDS011;16133;49.486;12.176;2023-07-08T05:28:55;5.78;;;4.80;;
29044;SDS011;16133;49.486;12.176;2023-07-08T05:31:21;6.22;;;4.90;;
29044;SDS011;16133;49.486;12.176;2023-07-08T05:33:46;5.05;;;4.30;;
29044;SDS011;16133;49.486;12.176;2023-07-08T05:36:11;6.30;;;4.40;;
29044;SDS011;16133;49.486;12.176;2023-07-08T05:38:37;6.60;;;4.00;;
29044;SDS011;16133;49.486;12.176;2023-07-08T05:41:03;5.07;;;4.05;;
29044;SDS011;16133;49.486;12.176;2023-07-08T05:43:28;5.57;;;4.43;;
29044;SDS011;16133;49.486;12.176;2023-07-08T05:46:00;5.82;;;4.60;;
29044;SDS011;16133;49.486;12.176;2023-07-08T05:48:26;10.23;;;4.95;;
29044;SDS011;16133;49.486;12.176;2023-07-08T05:50:52;7.53;;;4.47;;
29044;SDS011;16133;49.486;12.176;2023-07-08T05:53:18;7.60;;;4.80;;
29044;SDS011;16133;49.486;12.176;2023-07-08T05:55:45;6.70;;;5.00;;
29044;SDS011;16133;49.486;12.176;2023-07-08T05:58:10;6.13;;;4.50;;
29044;SDS011;16133;49.486;12.176;2023-07-08T06:00:40;9.57;;;5.25;;
29044;SDS011;16133;49.486;12.176;2023-07-08T06:03:05;5.53;;;4.22;;
29044;SDS011;16133;49.486;12.176;2023-07-08T06:05:30;7.90;;;4.90;;
29044;SDS011;16133;49.486;12.176;2023-07-08T06:07:58;6.18;;;4.63;;
29044;SDS011;16133;49.486;12.176;2023-07-08T06:10:23;7.72;;;4.93;;
29044;SDS011;16133;49.486;12.176;2023-07-08T06:12:48;6.53;;;4.68;;
29044;SDS011;16133;49.486;12.176;2023-07-08T06:15:14;7.72;;;4.55;;
29044;SDS011;16133;49.486;12.176;2023-07-08T06:17:39;8.32;;;4.30;;
29044;SDS011;16133;49.486;12.176;2023-07-08T06:20:05;5.20;;;4.32;;
29044;SDS011;16133;49.486;12.176;2023-07-08T06:22:31;8.68;;;5.47;;
29044;SDS011;16133;49.486;12.176;2023-07-08T06:24:56;9.20;;;5.30;;
29044;SDS011;16133;49.486;12.176;2023-07-08T06:27:21;9.30;;;5.97;;
29044;SDS011;16133;49.486;12.176;2023-07-08T06:29:47;9.52;;;5.88;;
29044;SDS011;16133;49.486;12.176;2023-07-08T06:32:12;6.63;;;4.25;;
29044;SDS011;16133;49.486;12.176;2023-07-08T06:34:37;5.65;;;4.63;;
29044;SDS011;16133;49.486;12.176;2023-07-08T06:37:03;9.27;;;4.88;;
29044;SDS011;16133;49.486;12.176;2023-07-08T06:39:29;8.35;;;4.63;;
29044;SDS011;16133;49.486;12.176;2023-07-08T06:41:54;6.65;;;4.38;;
29044;SDS011;16133;49.486;12.176;2023-07-08T06:44:19;7.07;;;4.55;;
29044;SDS011;16133;49.486;12.176;2023-07-08T06:46:44;11.40;;;4.70;;
29044;SDS011;16133;49.486;12.176;2023-07-08T06:49:10;8.50;;;5.10;;
29044;SDS011;16133;49.486;12.176;2023-07-08T06:51:36;11.48;;;5.28;;
29044;SDS011;16133;49.486;12.176;2023-07-08T06:54:02;6.65;;;4.80;;
29044;SDS011;16133;49.486;12.176;2023-07-08T06:56:30;7.55;;;4.65;;
29044;SDS011;16133;49.486;12.176;2023-07-08T06:58:55;8.07;;;5.00;;
29044;SDS011;16133;49.486;12.176;2023-07-08T07:01:21;8.45;;;5.32;;
29044;SDS011;16133;49.486;12.176;2023-07-08T07:03:47;7.55;;;5.32;;
29044;SDS011;16133;49.486;12.176;2023-07-08T07:06:12;7.45;;;4.35;;
29044;SDS011;16133;49.486;12.176;2023-07-08T07:08:37;9.98;;;5.18;;
29044;SDS011;16133;49.486;12.176;2023-07-08T07:11:03;8.38;;;5.07;;
29044;SDS011;16133;49.486;12.176;2023-07-08T07:13:28;11.32;;;4.65;;
29044;SDS011;16133;49.486;12.176;2023-07-08T07:15:54;6.53;;;4.60;;
29044;SDS011;16133;49.486;12.176;2023-07-08T07:18:19;7.38;;;4.70;;
29044;SDS011;16133;49.486;12.176;2023-07-08T07:20:48;10.95;;;5.50;;
29044;SDS011;16133;49.486;12.176;2023-07-08T07:23:15;10.05;;;5.63;;
29044;SDS011;16133;49.486;12.176;2023-07-08T07:25:41;7.70;;;4.82;;
29044;SDS011;16133;49.486;12.176;2023-07-08T07:28:07;7.30;;;4.85;;
29044;SDS011;16133;49.486;12.176;2023-07-08T07:30:32;7.43;;;4.97;;
29044;SDS011;16133;49.486;12.176;2023-07-08T07:32:58;6.07;;;4.60;;
29044;SDS011;16133;49.486;12.176;2023-07-08T07:35:25;6.85;;;4.70;;
29044;SDS011;16133;49.486;12.176;2023-07-08T07:37:51;9.07;;;5.00;;
29044;SDS011;16133;49.486;12.176;2023-07-08T07:40:16;8.68;;;5.05;;
29044;SDS011;16133;49.486;12.176;2023-07-08T07:42:42;6.00;;;4.50;;
29044;SDS011;16133;49.486;12.176;2023-07-08T07:45:09;6.82;;;4.75;;
29044;SDS011;16133;49.486;12.176;2023-07-08T07:47:35;7.85;;;4.85;;
29044;SDS011;16133;49.486;12.176;2023-07-08T07:50:01;8.00;;;5.25;;
29044;SDS011;16133;49.486;12.176;2023-07-08T07:52:27;7.38;;;4.47;;
29044;SDS011;16133;49.486;12.176;2023-07-08T07:54:52;7.35;;;4.43;;
29044;SDS011;16133;49.486;12.176;2023-07-08T07:57:19;9.00;;;4.93;;
29044;SDS011;16133;49.486;12.176;2023-07-08T07:59:45;6.95;;;5.15;;
29044;SDS011;16133;49.486;12.176;2023-07-08T08:02:12;7.32;;;5.07;;
29044;SDS011;16133;49.486;12.176;2023-07-08T08:04:38;4.78;;;3.95;;
29044;SDS011;16133;49.486;12.176;2023-07-08T08:07:03;6.47;;;4.53;;
29044;SDS011;16133;49.486;12.176;2023-07-08T08:09:29;4.82;;;3.80;;
29044;SDS011;16133;49.486;12.176;2023-07-08T08:11:54;8.50;;;3.88;;
29044;SDS011;16133;49.486;12.176;2023-07-08T08:14:20;7.40;;;3.78;;
29044;SDS011;16133;49.486;12.176;2023-07-08T08:16:45;5.10;;;3.80;;
29044;SDS011;16133;49.486;12.176;2023-07-08T08:19:11;4.75;;;3.40;;
29044;SDS011;16133;49.486;12.176;2023-07-08T08:21:36;5.75;;;3.03;;
29044;SDS011;16133;49.486;12.176;2023-07-08T08:24:01;5.88;;;3.42;;
29044;SDS011;16133;49.486;12.176;2023-07-08T08:26:27;4.13;;;3.08;;
29044;SDS011;16133;49.486;12.176;2023-07-08T08:28:56;6.45;;;3.10;;
29044;SDS011;16133;49.486;12.176;2023-07-08T08:31:22;5.68;;;3.00;;
29044;SDS011;16133;49.486;12.176;2023-07-08T08:33:47;4.82;;;3.10;;
29044;SDS011;16133;49.486;12.176;2023-07-08T08:36:13;5.35;;;3.05;;
29044;SDS011;16133;49.486;12.176;2023-07-08T08:38:38;5.95;;;3.05;;
29044;SDS011;16133;49.486;12.176;2023-07-08T08:41:04;6.95;;;3.40;;
29044;SDS011;16133;49.486;12.176;2023-07-08T08:43:44;12.25;;;3.33;;
29044;SDS011;16133;49.486;12.176;2023-07-08T08:46:16;4.10;;;2.80;;
29044;SDS011;16133;49.486;12.176;2023-07-08T08:51:52;4.22;;;2.80;;
29044;SDS011;16133;49.486;12.176;2023-07-08T08:54:18;5.78;;;3.75;;
29044;SDS011;16133;49.486;12.176;2023-07-08T09:01:54;4.35;;;3.00;;
29044;SDS011;16133;49.486;12.176;2023-07-08T09:04:22;5.50;;;3.22;;
29044;SDS011;16133;49.486;12.176;2023-07-08T09:07:01;5.28;;;2.83;;
29044;SDS011;16133;49.486;12.176;2023-07-08T09:12:04;5.07;;;3.70;;
29044;SDS011;16133;49.486;12.176;2023-07-08T09:14:32;5.82;;;3.70;;
29044;SDS011;16133;49.486;12.176;2023-07-08T09:22:35;3.72;;;3.08;;
29044;SDS011;16133;49.486;12.176;2023-07-08T09:27:40;4.95;;;3.13;;
29044;SDS011;16133;49.486;12.176;2023-07-08T09:30:13;4.28;;;3.20;;
29044;SDS011;16133;49.486;12.176;2023-07-08T09:32:43;4.10;;;2.85;;
29044;SDS011;16133;49.486;12.176;2023-07-08T09:35:09;5.93;;;3.70;;
29044;SDS011;16133;49.486;12.176;2023-07-08T09:37:44;4.43;;;3.35;;
29044;SDS011;16133;49.486;12.176;2023-07-08T09:40:31;4.07;;;3.30;;
29044;SDS011;16133;49.486;12.176;2023-07-08T09:43:02;5.10;;;3.13;;
29044;SDS011;16133;49.486;12.176;2023-07-08T09:45:45;5.57;;;3.30;;
29044;SDS011;16133;49.486;12.176;2023-07-08T09:48:16;5.68;;;3.40;;
29044;SDS011;16133;49.486;12.176;2023-07-08T09:50:46;4.18;;;3.33;;
29044;SDS011;16133;49.486;12.176;2023-07-08T09:53:13;4.85;;;3.50;;
29044;SDS011;16133;49.486;12.176;2023-07-08T09:55:39;4.28;;;3.15;;
29044;SDS011;16133;49.486;12.176;2023-07-08T09:58:04;4.85;;;2.97;;
29044;SDS011;16133;49.486;12.176;2023-07-08T10:00:41;4.13;;;2.72;;
29044;SDS011;16133;49.486;12.176;2023-07-08T10:03:40;3.83;;;3.20;;
29044;SDS011;16133;49.486;12.176;2023-07-08T10:06:02;4.88;;;3.38;;
29044;SDS011;16133;49.486;12.176;2023-07-08T10:08:39;4.18;;;3.10;;
29044;SDS011;16133;49.486;12.176;2023-07-08T10:14:01;4.95;;;3.00;;
29044;SDS011;16133;49.486;12.176;2023-07-08T10:16:34;5.43;;;2.92;;
29044;SDS011;16133;49.486;12.176;2023-07-08T10:19:00;4.00;;;2.95;;
29044;SDS011;16133;49.486;12.176;2023-07-08T10:26:41;4.97;;;2.97;;
29044;SDS011;16133;49.486;12.176;2023-07-08T10:34:47;6.82;;;3.80;;
29044;SDS011;16133;49.486;12.176;2023-07-08T10:37:25;3.78;;;2.65;;
29044;SDS011;16133;49.486;12.176;2023-07-08T10:45:48;5.32;;;3.47;;
29044;SDS011;16133;49.486;12.176;2023-07-08T10:50:59;4.43;;;3.15;;
29044;SDS011;16133;49.486;12.176;2023-07-08T10:53:41;5.40;;;3.50;;
29044;SDS011;16133;49.486;12.176;2023-07-08T10:56:23;4.35;;;3.10;;
29044;SDS011;16133;49.486;12.176;2023-07-08T11:04:58;5.07;;;3.22;;
29044;SDS011;16133;49.486;12.176;2023-07-08T11:17:42;5.10;;;3.22;;
29044;SDS011;16133;49.486;12.176;2023-07-08T11:20:17;8.82;;;3.95;;
29044;SDS011;16133;49.486;12.176;2023-07-08T11:26:41;8.57;;;6.65;;
29044;SDS011;16133;49.486;12.176;2023-07-08T11:32:13;8.18;;;4.75;;
29044;SDS011;16133;49.486;12.176;2023-07-08T11:34:46;8.77;;;4.80;;
29044;SDS011;16133;49.486;12.176;2023-07-08T11:37:13;8.95;;;4.93;;
29044;SDS011;16133;49.486;12.176;2023-07-08T11:39:41;4.97;;;4.07;;
29044;SDS011;16133;49.486;12.176;2023-07-08T11:44:55;4.70;;;3.55;;
29044;SDS011;16133;49.486;12.176;2023-07-08T11:50:24;5.65;;;3.70;;
29044;SDS011;16133;49.486;12.176;2023-07-08T11:53:12;6.07;;;3.90;;
29044;SDS011;16133;49.486;12.176;2023-07-08T11:55:57;5.25;;;3.75;;
29044;SDS011;16133;49.486;12.176;2023-07-08T11:58:28;5.25;;;3.25;;
29044;SDS011;16133;49.486;12.176;2023-07-08T12:01:00;5.00;;;3.47;;
29044;SDS011;16133;49.486;12.176;2023-07-08T12:03:40;6.07;;;3.20;;
29044;SDS011;16133;49.486;12.176;2023-07-08T12:08:58;4.30;;;3.25;;
29044;SDS011;16133;49.486;12.176;2023-07-08T12:11:32;5.10;;;3.35;;
29044;SDS011;16133;49.486;12.176;2023-07-08T12:14:00;5.00;;;3.53;;
29044;SDS011;16133;49.486;12.176;2023-07-08T12:16:27;4.13;;;2.88;;
29044;SDS011;16133;49.486;12.176;2023-07-08T12:18:55;13.20;;;3.25;;
29044;SDS011;16133;49.486;12.176;2023-07-08T12:21:22;3.65;;;2.92;;
29044;SDS011;16133;49.486;12.176;2023-07-08T12:23:50;3.67;;;3.20;;
29044;SDS011;16133;49.486;12.176;2023-07-08T12:26:15;5.30;;;3.40;;
29044;SDS011;16133;49.486;12.176;2023-07-08T12:28:41;4.45;;;3.17;;
29044;SDS011;16133;49.486;12.176;2023-07-08T12:31:18;6.13;;;3.45;;
29044;SDS011;16133;49.486;12.176;2023-07-08T12:33:45;6.03;;;3.55;;
29044;SDS011;16133;49.486;12.176;2023-07-08T12:36:15;3.90;;;3.13;;
29044;SDS011;16133;49.486;12.176;2023-07-08T12:38:43;3.63;;;3.13;;
29044;SDS011;16133;49.486;12.176;2023-07-08T12:43:57;3.13;;;2.83;;
29044;SDS011;16133;49.486;12.176;2023-07-08T12:46:24;3.67;;;3.22;;
29044;SDS011;16133;49.486;12.176;2023-07-08T12:48:54;3.63;;;3.05;;
29044;SDS011;16133;49.486;12.176;2023-07-08T12:51:42;4.82;;;3.63;;
29044;SDS011;16133;49.486;12.176;2023-07-08T12:54:09;3.63;;;3.33;;
29044;SDS011;16133;49.486;12.176;2023-07-08T12:56:46;4.40;;;3.40;;
29044;SDS011;16133;49.486;12.176;2023-07-08T12:59:13;6.60;;;3.75;;
29044;SDS011;16133;49.486;12.176;2023-07-08T13:01:47;5.35;;;3.78;;
29044;SDS011;16133;49.486;12.176;2023-07-08T13:04:14;4.05;;;3.20;;
29044;SDS011;16133;49.486;12.176;2023-07-08T13:06:40;5.28;;;3.58;;
29044;SDS011;16133;49.486;12.176;2023-07-08T13:11:53;3.30;;;3.00;;
29044;SDS011;16133;49.486;12.176;2023-07-08T13:14:21;4.70;;;2.83;;
29044;SDS011;16133;49.486;12.176;2023-07-08T13:16:47;3.30;;;2.75;;
29044;SDS011;16133;49.486;12.176;2023-07-08T13:19:14;5.40;;;3.20;;
29044;SDS011;16133;49.486;12.176;2023-07-08T13:21:42;3.88;;;3.40;;
29044;SDS011;16133;49.486;12.176;2023-07-08T13:24:11;4.57;;;2.92;;
29044;SDS011;16133;49.486;12.176;2023-07-08T13:26:36;4.40;;;3.20;;
29044;SDS011;16133;49.486;12.176;2023-07-08T13:29:13;4.88;;;3.10;;
29044;SDS011;16133;49.486;12.176;2023-07-08T13:31:52;6.57;;;3.40;;
29044;SDS011;16133;49.486;12.176;2023-07-08T13:34:23;3.45;;;2.88;;
29044;SDS011;16133;49.486;12.176;2023-07-08T13:36:50;3.45;;;2.50;;
29044;SDS011;16133;49.486;12.176;2023-07-08T13:39:20;4.07;;;3.33;;
29044;SDS011;16133;49.486;12.176;2023-07-08T13:41:49;5.72;;;3.08;;
29044;SDS011;16133;49.486;12.176;2023-07-08T13:44:15;4.55;;;3.25;;
29044;SDS011;16133;49.486;12.176;2023-07-08T13:46:44;3.20;;;2.88;;
29044;SDS011;16133;49.486;12.176;2023-07-08T13:49:19;3.97;;;2.92;;
29044;SDS011;16133;49.486;12.176;2023-07-08T13:52:06;3.33;;;2.80;;
29044;SDS011;16133;49.486;12.176;2023-07-08T13:54:33;4.80;;;3.22;;
29044;SDS011;16133;49.486;12.176;2023-07-08T13:57:10;7.55;;;3.60;;
29044;SDS011;16133;49.486;12.176;2023-07-08T13:59:37;3.60;;;2.97;;
29044;SDS011;16133;49.486;12.176;2023-07-08T14:02:08;2.78;;;2.50;;
29044;SDS011;16133;49.486;12.176;2023-07-08T14:04:45;3.72;;;3.00;;
29044;SDS011;16133;49.486;12.176;2023-07-08T14:07:18;3.80;;;3.20;;
29044;SDS011;16133;49.486;12.176;2023-07-08T14:09:49;4.50;;;3.30;;
29044;SDS011;16133;49.486;12.176;2023-07-08T14:12:15;4.47;;;3.47;;
29044;SDS011;16133;49.486;12.176;2023-07-08T14:14:40;3.28;;;2.78;;
29044;SDS011;16133;49.486;12.176;2023-07-08T14:17:08;3.63;;;2.80;;
29044;SDS011;16133;49.486;12.176;2023-07-08T14:19:37;3.33;;;3.03;;
29044;SDS011;16133;49.486;12.176;2023-07-08T14:24:38;3.35;;;2.78;;
29044;SDS011;16133;49.486;12.176;2023-07-08T14:27:04;4.68;;;2.85;;
29044;SDS011;16133;49.486;12.176;2023-07-08T14:29:29;3.10;;;2.63;;
29044;SDS011;16133;49.486;12.176;2023-07-08T14:31:58;4.70;;;3.00;;
29044;SDS011;16133;49.486;12.176;2023-07-08T14:34:24;4.13;;;2.97;;
29044;SDS011;16133;49.486;12.176;2023-07-08T14:36:51;4.60;;;3.10;;
29044;SDS011;16133;49.486;12.176;2023-07-08T14:39:17;3.67;;;3.05;;
29044;SDS011;16133;49.486;12.176;2023-07-08T14:41:44;3.38;;;3.00;;
29044;SDS011;16133;49.486;12.176;2023-07-08T14:44:25;3.97;;;3.10;;
29044;SDS011;16133;49.486;12.176;2023-07-08T14:46:55;4.53;;;3.22;;
29044;SDS011;16133;49.486;12.176;2023-07-08T14:49:22;4.18;;;3.38;;
29044;SDS011;16133;49.486;12.176;2023-07-08T14:51:48;3.22;;;2.92;;
29044;SDS011;16133;49.486;12.176;2023-07-08T14:54:14;4.70;;;3.15;;
29044;SDS011;16133;49.486;12.176;2023-07-08T14:56:40;3.58;;;2.92;;
29044;SDS011;16133;49.486;12.176;2023-07-08T14:59:07;4.03;;;3.25;;
29044;SDS011;16133;49.486;12.176;2023-07-08T15:01:40;4.40;;;3.00;;
29044;SDS011;16133;49.486;12.176;2023-07-08T15:04:12;4.97;;;2.72;;
29044;SDS011;16133;49.486;12.176;2023-07-08T15:06:40;3.45;;;2.70;;
29044;SDS011;16133;49.486;12.176;2023-07-08T15:09:06;3.58;;;2.80;;
29044;SDS011;16133;49.486;12.176;2023-07-08T15:11:32;4.03;;;3.13;;
29044;SDS011;16133;49.486;12.176;2023-07-08T15:13:58;3.58;;;3.08;;
29044;SDS011;16133;49.486;12.176;2023-07-08T15:16:25;5.68;;;3.30;;
29044;SDS011;16133;49.486;12.176;2023-07-08T15:18:51;4.28;;;3.38;;
29044;SDS011;16133;49.486;12.176;2023-07-08T15:21:16;4.25;;;3.05;;
29044;SDS011;16133;49.486;12.176;2023-07-08T15:23:41;4.68;;;3.33;;
29044;SDS011;16133;49.486;12.176;2023-07-08T15:26:10;4.75;;;3.50;;
29044;SDS011;16133;49.486;12.176;2023-07-08T15:28:39;4.07;;;3.45;;
29044;SDS011;16133;49.486;12.176;2023-07-08T15:31:13;4.03;;;3.25;;
29044;SDS011;16133;49.486;12.176;2023-07-08T15:33:42;4.25;;;3.08;;
29044;SDS011;16133;49.486;12.176;2023-07-08T15:36:09;4.38;;;3.22;;
29044;SDS011;16133;49.486;12.176;2023-07-08T15:38:36;4.50;;;3.17;;
29044;SDS011;16133;49.486;12.176;2023-07-08T15:41:01;4.32;;;3.30;;
29044;SDS011;16133;49.486;12.176;2023-07-08T15:43:29;3.88;;;2.63;;
29044;SDS011;16133;49.486;12.176;2023-07-08T15:45:54;4.60;;;2.92;;
29044;SDS011;16133;49.486;12.176;2023-07-08T15:48:20;3.90;;;2.92;;
29044;SDS011;16133;49.486;12.176;2023-07-08T15:50:46;3.40;;;2.75;;
29044;SDS011;16133;49.486;12.176;2023-07-08T15:53:14;4.43;;;3.28;;
29044;SDS011;16133;49.486;12.176;2023-07-08T15:55:41;4.00;;;2.72;;
29044;SDS011;16133;49.486;12.176;2023-07-08T16:00:37;4.38;;;3.50;;
29044;SDS011;16133;49.486;12.176;2023-07-08T16:03:06;3.90;;;2.85;;
29044;SDS011;16133;49.486;12.176;2023-07-08T16:05:35;4.38;;;2.72;;
29044;SDS011;16133;49.486;12.176;2023-07-08T16:08:02;5.28;;;3.13;;